Home > Products > Valid Products > TAF

000
FTUS41 KOKX 172000 AAB
TAFLGA
TAF AMD
KLGA 172032Z 1721/1818 27008KT P6SM FEW060
      TEMPO 1723/1724 20008KT
     FM180500 25004KT P6SM FEW070 SCT250
     FM181200 35006KT P6SM FEW050 SCT250=



000
FTUS41 KOKX 172000 AAB
TAFISP
TAF AMD
KISP 172032Z 1721/1818 20008KT P6SM FEW060 FEW250
     FM180000 23003KT P6SM FEW070 FEW250
     FM180300 VRB02KT P6SM FEW070 FEW250
     FM181200 34006KT P6SM FEW070 SCT250=



000
FTUS41 KOKX 172000 AAA
TAFSWF
TAF AMD
KSWF 172032Z 1721/1824 27005KT P6SM SCT050
     FM180100 VRB02KT P6SM FEW070 SCT250
     FM181200 33005KT P6SM FEW050 SCT250
      AMD NOT SKED=



000
FTUS41 KOKX 172000 AAB
TAFBDR
TAF AMD
KBDR 172032Z 1721/1818 21009KT P6SM FEW060
     FM180000 24004KT P6SM FEW070 FEW250
     FM181200 34005KT P6SM FEW070 SCT250
     FM181700 24007KT P6SM FEW070 SCT250=



000
FTUS41 KOKX 172000 AAB
TAFEWR
TAF AMD
KEWR 172032Z 1721/1824 26007KT P6SM SCT060
      TEMPO 1723/1724 15007KT
     FM180500 26005KT P6SM FEW070 SCT250
     FM181200 34007KT P6SM FEW050 SCT250
     FM182000 31007KT P6SM FEW050 SCT250=



000
FTUS41 KOKX 172000 AAB
TAFJFK
TAF AMD
KJFK 172032Z 1721/1824 19012KT P6SM FEW060 FEW250
     FM180000 20007KT P6SM FEW070 FEW250
     FM180600 28004KT P6SM FEW070 SCT250
     FM181200 35007KT P6SM FEW050 SCT250
     FM181900 31007KT P6SM FEW050 SCT250=



000
FTUS41 KOKX 172000 AAB
TAFGON
TAF AMD
KGON 172032Z 1721/1818 19009KT P6SM FEW060
     FM180000 24004KT P6SM FEW070 FEW250
     FM181200 34005KT P6SM SCT070 SCT250
     FM181700 24008KT P6SM SCT070 SCT250=



000
FTUS41 KOKX 172000 AAB
TAFTEB
TAF AMD
KTEB 172032Z 1721/1818 20005KT P6SM SCT050
     FM180100 VRB03KT P6SM FEW070 FEW250
     FM180700 26005KT P6SM FEW070 SCT250
     FM181200 34006KT P6SM FEW050 SCT250=



000
FTUS41 KOKX 171900 AAA
TAFEWR
TAF AMD
KEWR 171931Z 1720/1824 26007KT P6SM FEW060
     FM172200 24007KT P6SM FEW050 FEW250
     FM180500 26005KT P6SM FEW070 SCT250
     FM181200 34007KT P6SM FEW050 SCT250
     FM182000 31007KT P6SM FEW050 SCT250=



000
FTUS41 KOKX 171900 AAA
TAFLGA
TAF AMD
KLGA 171931Z 1720/1818 27006KT P6SM FEW060
     FM172200 23007KT P6SM FEW050 FEW250
     FM180500 25004KT P6SM FEW070 SCT250
     FM181200 35006KT P6SM FEW050 SCT250=



000
FTUS41 KOKX 171900 AAA
TAFTEB
TAF AMD
KTEB 171931Z 1720/1818 VRB05KT P6SM FEW050
     FM172300 23005KT P6SM FEW050 FEW250
     FM180100 VRB03KT P6SM FEW070 FEW250
     FM180700 26005KT P6SM FEW070 SCT250
     FM181200 34006KT P6SM FEW050 SCT250=



000
FTUS41 KOKX 171900 AAA
TAFISP
TAF AMD
KISP 171909Z 1719/1818 34008KT P6SM FEW060
     FM172000 20008KT P6SM FEW060 FEW250
     FM180000 23003KT P6SM FEW070 FEW250
     FM180300 VRB02KT P6SM FEW070 FEW250
     FM181200 34006KT P6SM FEW070 SCT250=



000
FTUS41 KOKX 171900 AAA
TAFJFK
TAF AMD
KJFK 171903Z 1719/1824 23009KT P6SM FEW060
     FM172000 19010KT P6SM FEW060 FEW250
     FM180200 21005KT P6SM FEW070 FEW250
     FM180600 28004KT P6SM FEW070 SCT250
     FM181200 35007KT P6SM FEW050 SCT250
     FM181900 31007KT P6SM FEW050 SCT250=



000
FTUS41 KOKX 171800 AAA
TAFGON
TAF AMD
KGON 171824Z 1718/1818 19009KT P6SM FEW060
     FM180000 24004KT P6SM FEW070 FEW250
     FM181200 34005KT P6SM SCT070 SCT250
     FM181700 24008KT P6SM SCT070 SCT250=



000
FTUS41 KOKX 171800 AAA
TAFBDR
TAF AMD
KBDR 171824Z 1718/1818 21009KT P6SM FEW060
     FM180000 24004KT P6SM FEW070 FEW250
     FM181200 34005KT P6SM FEW070 SCT250
     FM181700 24007KT P6SM FEW070 SCT250=



000
FTUS41 KOKX 171700
TAFGON
TAF
KGON 171738Z 1718/1818 VRB05KT P6SM FEW050
     FM172000 23008KT P6SM FEW050
     FM180000 22004KT P6SM FEW070 FEW250
     FM180300 VRB02KT P6SM FEW070 FEW250
     FM181200 34005KT P6SM SCT070 SCT250
     FM181700 24008KT P6SM SCT070 SCT250=



000
FTUS41 KOKX 171700
TAFISP
TAF
KISP 171738Z 1718/1818 34008KT P6SM FEW050
     FM172100 20006KT P6SM FEW050 FEW250
     FM180000 23003KT P6SM FEW070 FEW250
     FM180300 VRB02KT P6SM FEW070 FEW250
     FM181200 34006KT P6SM FEW070 SCT250=



000
FTUS41 KOKX 171700
TAFBDR
TAF
KBDR 171738Z 1718/1818 VRB05KT P6SM FEW050
     FM172000 22008KT P6SM SCT050
     FM180000 22004KT P6SM FEW070 FEW250
     FM180300 VRB02KT P6SM FEW070 FEW250
     FM181200 34005KT P6SM FEW070 SCT250
     FM181700 24007KT P6SM FEW070 SCT250=



000
FTUS41 KOKX 171700
TAFSWF
TAF
KSWF 171738Z 1718/1824 31006KT P6SM SCT050
     FM172000 20006KT P6SM SCT050
     FM180100 VRB02KT P6SM FEW070 SCT250
     FM181200 33005KT P6SM FEW050 SCT250
      AMD NOT SKED=



000
FTUS41 KOKX 171700
TAFLGA
TAF
KLGA 171738Z 1718/1818 31008KT P6SM FEW050
     FM172000 23008KT P6SM FEW050 FEW250
     FM180000 20005KT P6SM FEW070 FEW250
     FM180600 27004KT P6SM FEW070 SCT250
     FM181200 35006KT P6SM FEW050 SCT250=



000
FTUS41 KOKX 171700
TAFEWR
TAF
KEWR 171738Z 1718/1824 28007KT P6SM FEW050
     FM172100 22007KT P6SM FEW050 FEW250
     FM180100 23005KT P6SM FEW070 FEW250
     FM180700 27005KT P6SM FEW070 SCT250
     FM181200 34007KT P6SM FEW050 SCT250
     FM182000 31007KT P6SM FEW050 SCT250=



000
FTUS41 KOKX 171700
TAFJFK
TAF
KJFK 171738Z 1718/1824 22006KT P6SM FEW050
     FM171900 18008KT P6SM FEW050 FEW250
     FM180200 21005KT P6SM FEW070 FEW250
     FM180600 28004KT P6SM FEW070 SCT250
     FM181200 35007KT P6SM FEW050 SCT250
     FM181900 31007KT P6SM FEW050 SCT250=



000
FTUS41 KOKX 171700
TAFTEB
TAF
KTEB 171738Z 1718/1818 VRB05KT P6SM FEW050
     FM172100 22005KT P6SM FEW050 FEW250
     FM180100 VRB03KT P6SM FEW070 FEW250
     FM180700 26005KT P6SM FEW070 SCT250
     FM181200 34006KT P6SM FEW050 SCT250=



000
FTUS41 KOKX 171400 AAA
TAFGON
TAF AMD
KGON 171441Z 1715/1812 35007KT P6SM FEW050
     FM171630 22008KT P6SM SCT050
     FM180000 22004KT P6SM SCT070
     FM180300 VRB02KT P6SM SCT070=



000
FTUS41 KOKX 171400 AAA
TAFSWF
TAF AMD
KSWF 171441Z 1715/1818 VRB04KT P6SM FEW050
     FM172000 20006KT P6SM SCT050
     FM180200 VRB03KT P6SM SCT070
     FM181300 33004KT P6SM FEW050 SCT250
      AMD NOT SKED=



000
FTUS41 KOKX 171400 AAA
TAFEWR
TAF AMD
KEWR 171441Z 1715/1818 01005KT P6SM FEW050
     FM171800 18008KT P6SM SCT050
     FM180200 VRB04KT P6SM SCT070
     FM181300 33007KT P6SM FEW050 SCT250=



000
FTUS41 KOKX 171400 AAA
TAFJFK
TAF AMD
KJFK 171441Z 1715/1818 33006KT P6SM FEW050
     FM171700 18010KT P6SM SCT050
     FM180200 21005KT P6SM SCT070
     FM180600 25004KT P6SM SCT070 SCT250
     FM181300 32007KT P6SM FEW050 SCT250=



000
FTUS41 KOKX 171400 AAA
TAFTEB
TAF AMD
KTEB 171441Z 1715/1812 35004KT P6SM FEW050
     FM171800 18006KT P6SM SCT050
     FM180000 VRB03KT P6SM SCT070=



000
FTUS41 KOKX 171400 AAA
TAFISP
TAF AMD
KISP 171441Z 1715/1812 36007KT P6SM FEW050
     FM171700 33008KT P6SM SCT050
     FM171900 20008KT P6SM SCT050
     FM180000 21005KT P6SM SCT070
     FM180300 VRB02KT P6SM SCT070=



000
FTUS41 KOKX 171400 AAA
TAFLGA
TAF AMD
KLGA 171441Z 1715/1812 04006KT P6SM FEW050
     FM171800 17008KT P6SM SCT050
     FM180200 20005KT P6SM SCT070
     FM180600 26004KT P6SM SCT070 SCT250=



000
FTUS41 KOKX 171400 AAA
TAFBDR
TAF AMD
KBDR 171441Z 1715/1812 36006KT P6SM FEW050
     FM171630 22008KT P6SM SCT050
     FM180000 22004KT P6SM SCT070
     FM180300 VRB02KT P6SM SCT070=



000
FTUS41 KOKX 171100
TAFGON
TAF
KGON 171124Z 1712/1812 35005KT P6SM FEW050
     FM171600 20007KT P6SM SCT050
     FM180000 22004KT P6SM SCT070
     FM180300 VRB02KT P6SM SCT070=



000
FTUS41 KOKX 171100
TAFEWR
TAF
KEWR 171124Z 1712/1818 01005KT P6SM FEW050
     FM171800 18008KT P6SM SCT050
     FM180200 VRB04KT P6SM SCT070
     FM181300 33007KT P6SM FEW050 SCT250=



000
FTUS41 KOKX 171100
TAFLGA
TAF
KLGA 171124Z 1712/1812 36004KT P6SM FEW050
     FM171400 03006KT P6SM FEW050
     FM171800 17008KT P6SM SCT050
     FM180200 20005KT P6SM SCT070
     FM180600 26004KT P6SM SCT070 SCT250=



000
FTUS41 KOKX 171100
TAFTEB
TAF
KTEB 171124Z 1712/1812 35004KT P6SM FEW050
     FM171800 18006KT P6SM SCT050
     FM180000 VRB03KT P6SM SCT070=



000
FTUS41 KOKX 171100
TAFSWF
TAF
KSWF 171124Z 1712/1818 VRB02KT P6SM FEW050
     FM171400 30005KT P6SM FEW050
     FM172000 25006KT P6SM SCT050
     FM180200 VRB03KT P6SM SCT070
     FM181300 33004KT P6SM FEW050 SCT250
      AMD NOT SKED=



000
FTUS41 KOKX 171100
TAFBDR
TAF
KBDR 171124Z 1712/1812 36005KT P6SM FEW050
     FM171600 20008KT P6SM SCT050
     FM180000 22004KT P6SM SCT070
     FM180300 VRB02KT P6SM SCT070=



000
FTUS41 KOKX 171100
TAFISP
TAF
KISP 171124Z 1712/1812 VRB03KT P6SM FEW050
     FM171400 36006KT P6SM FEW050
     FM171700 32006KT P6SM SCT050
     FM171900 20008KT P6SM SCT050
     FM180000 21005KT P6SM SCT070
     FM180300 VRB02KT P6SM SCT070=



000
FTUS41 KOKX 171100
TAFJFK
TAF
KJFK 171124Z 1712/1818 36005KT P6SM FEW050
     FM171500 VRB04KT P6SM SCT050
     FM171700 18010KT P6SM SCT050
     FM180200 21005KT P6SM SCT070
     FM180600 25004KT P6SM SCT070 SCT250
     FM181300 32007KT P6SM FEW050 SCT250=



000
FTUS41 KOKX 170800 AAA
TAFEWR
TAF AMD
KEWR 170830Z 1709/1812 34005KT P6SM SKC
     FM171800 18008KT P6SM SCT050 SCT250
     FM180200 VRB04KT P6SM SCT250=



000
FTUS41 KOKX 170800 AAA
TAFTEB
TAF AMD
KTEB 170830Z 1709/1806 VRB02KT P6SM SKC
     FM171900 18006KT P6SM SCT050 SCT250
     FM180000 VRB03KT P6SM SCT250=



000
FTUS41 KOKX 170800 AAA
TAFISP
TAF AMD
KISP 170830Z 1709/1806 VRB02KT P6SM SKC
     FM171300 36006KT P6SM SKC
     FM171700 32006KT P6SM SCT050 SCT250
     FM171900 20008KT P6SM SCT050 SCT250
     FM180000 20005KT P6SM SCT250=



000
FTUS41 KOKX 170800 AAA
TAFSWF
TAF AMD
KSWF 170830Z 1709/1812 VRB02KT P6SM SKC
      TEMPO 1709/1711 2SM BR
     FM171400 30005KT P6SM FEW050 SCT250
     FM172000 25006KT P6SM SCT050 SCT250
     FM180200 VRB03KT P6SM SCT250
      AMD NOT SKED=



000
FTUS41 KOKX 170800 AAA
TAFLGA
TAF AMD
KLGA 170830Z 1709/1806 36004KT P6SM SKC
     FM171400 03006KT P6SM SKC
     FM171900 18010KT P6SM SCT050 SCT250
     FM180200 20005KT P6SM SCT250=



000
FTUS41 KOKX 170800 AAA
TAFGON
TAF AMD
KGON 170830Z 1709/1806 35006KT P6SM SKC
     FM171600 20007KT P6SM SCT050 SCT250
     FM180000 22004KT P6SM SCT250=



000
FTUS41 KOKX 170800 AAA
TAFJFK
TAF AMD
KJFK 170830Z 1709/1812 35005KT P6SM SKC
     FM171500 VRB04KT P6SM SKC
     FM171700 18010KT P6SM SCT050 SCT250
     FM180200 21005KT P6SM SCT250
     FM180600 25004KT P6SM SCT250=



000
FTUS41 KOKX 170800 AAA
TAFBDR
TAF AMD
KBDR 170830Z 1709/1806 36005KT P6SM SKC
     FM171600 20008KT P6SM SCT050 SCT250
     FM180000 22004KT P6SM SCT250=



000
FTUS41 KOKX 170500
TAFTEB
TAF
KTEB 170524Z 1706/1806 VRB02KT P6SM SKC
     FM171900 18006KT P6SM SCT050 SCT250
     FM180000 VRB03KT P6SM SCT250=



000
FTUS41 KOKX 170500
TAFEWR
TAF
KEWR 170524Z 1706/1812 34006KT P6SM SKC
     FM171800 18008KT P6SM SCT050 SCT250
     FM180200 VRB04KT P6SM SCT250=



000
FTUS41 KOKX 170500
TAFGON
TAF
KGON 170524Z 1706/1806 VRB03KT P6SM SKC
     FM171200 35005KT P6SM FEW250
     FM171600 20007KT P6SM SCT050 SCT250
     FM180000 22004KT P6SM SCT250=



000
FTUS41 KOKX 170500
TAFSWF
TAF
KSWF 170524Z 1706/1812 VRB02KT P6SM SKC
      TEMPO 1708/1711 3SM BR
     FM171400 30005KT P6SM FEW050 SCT250
     FM172000 25006KT P6SM SCT050 SCT250
     FM180200 VRB03KT P6SM SCT250
      AMD NOT SKED=



000
FTUS41 KOKX 170500
TAFJFK
TAF
KJFK 170524Z 1706/1812 34005KT P6SM SKC
     FM171500 VRB04KT P6SM SKC
     FM171700 18010KT P6SM SCT050 SCT250
     FM180200 21005KT P6SM SCT250
     FM180600 25004KT P6SM SCT250=



000
FTUS41 KOKX 170500
TAFLGA
TAF
KLGA 170524Z 1706/1806 35006KT P6SM SKC
     FM171400 03006KT P6SM SKC
     FM171900 18010KT P6SM SCT050 SCT250
     FM180200 20005KT P6SM SCT250=



000
FTUS41 KOKX 170500
TAFBDR
TAF
KBDR 170524Z 1706/1806 VRB03KT P6SM SKC
     FM171200 36006KT P6SM FEW250
     FM171600 20008KT P6SM SCT050 SCT250
     FM180000 22004KT P6SM SCT250=



000
FTUS41 KOKX 170500
TAFISP
TAF
KISP 170524Z 1706/1806 VRB03KT P6SM SKC
     FM171200 36006KT P6SM FEW250
     FM171700 32006KT P6SM SCT050 SCT250
     FM171900 20008KT P6SM SCT050 SCT250
     FM180000 20005KT P6SM SCT250=



000
FTUS41 KOKX 170300 AAB
TAFEWR
TAF AMD
KEWR 170319Z 1703/1806 35006KT P6SM FEW060 FEW250
     FM171800 18008KT P6SM SCT050 SCT250
     FM180200 VRB04KT P6SM SCT200=



000
FTUS41 KOKX 170200 AAA
TAFISP
TAF AMD
KISP 170230Z 1703/1724 VRB03KT P6SM BKN080
     FM170400 VRB03KT P6SM FEW250
     FM171200 36006KT P6SM FEW250
     FM171900 20008KT P6SM SCT050 SCT250=



000
FTUS41 KOKX 170200 AAA
TAFBDR
TAF AMD
KBDR 170230Z 1703/1724 VRB03KT P6SM BKN080
     FM170400 VRB03KT P6SM FEW250
     FM171200 36006KT P6SM FEW250
     FM171600 20008KT P6SM SCT050 SCT250=



000
FTUS41 KOKX 170200 AAA
TAFSWF
TAF AMD
KSWF 170230Z 1703/1806 VRB05KT P6SM SCT060
     FM170400 VRB02KT P6SM SKC
     FM171400 30005KT P6SM FEW050 FEW250
     FM172000 25008KT P6SM SCT050 SCT250
     FM180200 VRB04KT P6SM SCT200
      AMD NOT SKED=



000
FTUS41 KOKX 170200 AAA
TAFGON
TAF AMD
KGON 170230Z 1703/1724 VRB03KT P6SM BKN080
     FM170400 VRB03KT P6SM FEW250
     FM171200 35005KT P6SM FEW250
     FM171800 20007KT P6SM SCT050 SCT250=



000
FTUS41 KOKX 170200 AAA
TAFJFK
TAF AMD
KJFK 170230Z 1703/1806 VRB03KT P6SM SCT040 SCT080
     FM170400 35005KT P6SM FEW060 FEW250
     FM171400 25007KT P6SM FEW250
     FM171800 18010KT P6SM SCT050 SCT250
     FM180200 VRB04KT P6SM SCT200=



000
FTUS41 KOKX 170200 AAA
TAFLGA
TAF AMD
KLGA 170230Z 1703/1724 35005KT P6SM SCT040 BKN080
     FM170400 33007KT P6SM FEW060 FEW250
     FM171400 02007KT P6SM FEW250
     FM171900 18010KT P6SM SCT050 SCT250=



000
FTUS41 KOKX 170200 AAA
TAFTEB
TAF AMD
KTEB 170230Z 1703/1724 VRB02KT P6SM BKN070
     FM170400 VRB02KT P6SM FEW250
     FM171900 18006KT P6SM SCT050 SCT250=



000
FTUS41 KOKX 170200 AAA
TAFEWR
TAF AMD
KEWR 170230Z 1703/1806 33008KT P6SM SCT040 BKN060
     FM170400 35006KT P6SM FEW060 FEW250
     FM171800 18008KT P6SM SCT050 SCT250
     FM180200 VRB04KT P6SM SCT200=



000
FTUS41 KOKX 162300
TAFSWF
TAF
KSWF 162330Z 1700/1806 VRB05KT P6SM SCT040 BKN060
     FM170400 VRB02KT P6SM SKC
     FM171400 30005KT P6SM FEW050 FEW250
     FM172000 25008KT P6SM SCT050 SCT250
     FM180200 VRB04KT P6SM SCT200
      AMD NOT SKED=



000
FTUS41 KOKX 162300
TAFGON
TAF
KGON 162330Z 1700/1724 VRB03KT P6SM BKN080
     FM170400 VRB03KT P6SM FEW250
     FM171200 30005KT P6SM FEW250
     FM172000 25008KT P6SM SCT050 SCT250=



000
FTUS41 KOKX 162300
TAFTEB
TAF
KTEB 162330Z 1700/1724 33008KT P6SM SCT040 BKN060
     FM170400 VRB02KT P6SM FEW250
     FM171900 18006KT P6SM SCT050 SCT250=



000
FTUS41 KOKX 162300
TAFISP
TAF
KISP 162330Z 1700/1724 VRB03KT P6SM SCT040 BKN080
     FM170400 VRB03KT P6SM FEW250
     FM171200 36006KT P6SM FEW250
     FM171900 20008KT P6SM SCT050 SCT250=



000
FTUS41 KOKX 162300
TAFEWR
TAF
KEWR 162330Z 1700/1806 33008KT P6SM SCT040 BKN060
     FM170400 35006KT P6SM FEW060 FEW250
     FM171800 18008KT P6SM SCT050 SCT250
     FM180200 VRB04KT P6SM SCT200=



000
FTUS41 KOKX 162300
TAFLGA
TAF
KLGA 162330Z 1700/1724 VRB04KT P6SM SCT040 BKN080
     FM170400 33007KT P6SM FEW060 FEW250
     FM171400 02007KT P6SM FEW250
     FM171900 18010KT P6SM SCT050 SCT250=



000
FTUS41 KOKX 162300
TAFJFK
TAF
KJFK 162330Z 1700/1806 VRB04KT P6SM SCT040 BKN060
     FM170400 35005KT P6SM FEW060 FEW250
     FM171400 25007KT P6SM FEW250
     FM171800 18010KT P6SM SCT050 SCT250
     FM180200 VRB04KT P6SM SCT200=



000
FTUS41 KOKX 162300
TAFBDR
TAF
KBDR 162330Z 1700/1724 VRB03KT P6SM BKN080
     FM170400 VRB03KT P6SM FEW250
     FM171200 36006KT P6SM FEW250
     FM171600 20008KT P6SM SCT050 SCT250=



000
FTUS41 KOKX 162000 AAB
TAFSWF
TAF AMD
KSWF 162051Z 1621/1724 VRB05KT P6SM SCT035 BKN050
     FM170100 VRB02KT P6SM FEW030 SCT050
     FM170600 VRB04KT P6SM SKC
     FM171400 35006KT P6SM SKC
     FM172000 26006KT P6SM SCT050
      AMD NOT SKED=



000
FTUS41 KOKX 162000 AAB
TAFLGA
TAF AMD
KLGA 162046Z 1621/1718 18007KT P6SM SCT040 BKN060
     FM162300 35007KT P6SM SCT060
     FM170500 36006KT P6SM FEW250
     FM171300 03008KT P6SM SKC=



000
FTUS41 KOKX 161900 CCA
TAFEWR
TAF COR
KEWR 161953Z 1620/1724 30008KT P6SM SCT035 BKN050
     FM170000 34007KT P6SM SCT060
     FM170500 36006KT P6SM FEW250
     FM171300 02006KT P6SM SKC
     FM171900 20008KT P6SM SCT050=



000
FTUS41 KOKX 161900 AAA
TAFTEB
TAF AMD
KTEB 161947Z 1620/1718 VRB05KT P6SM SCT040 BKN060
     FM162300 32007KT P6SM SCT060
     FM170400 VRB03KT P6SM SKC
     FM171300 02006KT P6SM SKC=



000
FTUS41 KOKX 161900 AAA
TAFLGA
TAF AMD
KLGA 161947Z 1620/1718 02007KT P6SM SCT040 BKN060
     FM162300 34007KT P6SM SCT060
     FM170500 36006KT P6SM FEW250
     FM171300 03008KT P6SM SKC=



000
FTUS41 KOKX 161900 AAA
TAFEWR
TAF AMD
KEWR 161947Z 1620/1724 30008KT 6SM BR SCT035 BKN050
     FM170000 34007KT P6SM SCT060
     FM170500 36006KT P6SM FEW250
     FM171300 02006KT P6SM SKC
     FM171900 20008KT P6SM SCT050=



000
FTUS41 KOKX 161900 AAA
TAFJFK
TAF AMD
KJFK 161947Z 1620/1724 16005KT P6SM SCT035 BKN060
     FM162200 32006KT P6SM SCT060
     FM170500 35006KT P6SM FEW250
     FM171300 02006KT P6SM SKC
     FM171900 18008KT P6SM SCT050=



000
FTUS41 KOKX 161900 AAA
TAFSWF
TAF AMD
KSWF 161947Z 1620/1724 32006KT P6SM BKN030
     FM162200 34007KT P6SM SCT035 BKN050
     FM170100 VRB02KT P6SM FEW030 SCT050
     FM170600 VRB04KT P6SM SKC
     FM171400 35006KT P6SM SKC
     FM172000 26006KT P6SM SCT050
      AMD NOT SKED=



000
FTUS41 KOKX 161900 AAA
TAFISP
TAF AMD
KISP 161947Z 1620/1718 27007KT P6SM BKN060
     FM170100 33005KT P6SM SCT060
     FM170500 35005KT P6SM SKC
     FM171300 02007KT P6SM SKC=



000
FTUS41 KOKX 161900 AAA
TAFBDR
TAF AMD
KBDR 161947Z 1620/1718 26007KT P6SM BKN050
     FM170100 34005KT P6SM SCT060
     FM170500 VRB05KT P6SM SKC
     FM171300 03007KT P6SM SKC=



000
FTUS41 KOKX 161900 AAA
TAFGON
TAF AMD
KGON 161947Z 1620/1718 25007KT P6SM SCT050
     FM170300 33005KT P6SM SCT050
     FM170500 VRB05KT P6SM SKC
     FM171400 32007KT P6SM SKC=



000
FTUS41 KOKX 161700
TAFSWF
TAF
KSWF 161732Z 1618/1724 32006KT P6SM SCT020 BKN050
     FM170100 VRB02KT P6SM FEW050 SCT250
     FM170600 VRB04KT P6SM SKC
     FM171400 35006KT P6SM SKC
     FM172000 26006KT P6SM SCT050
      AMD NOT SKED=



000
FTUS41 KOKX 161700
TAFJFK
TAF
KJFK 161732Z 1618/1724 04006KT P6SM FEW007 SCT025 BKN045
     FM162000 31007KT P6SM SCT050
     FM170200 33007KT P6SM FEW050
     FM170500 35006KT P6SM FEW250
     FM171300 02006KT P6SM SKC
     FM171900 18008KT P6SM SCT050=



000
FTUS41 KOKX 161700
TAFISP
TAF
KISP 161732Z 1618/1718 15004KT 6SM BR SCT025 OVC050
     FM162100 26008KT P6SM SCT050 SCT150
     FM170200 34005KT P6SM FEW050 SCT250
     FM170500 35005KT P6SM SKC
     FM171300 02007KT P6SM SKC=



000
FTUS41 KOKX 161700
TAFTEB
TAF
KTEB 161732Z 1618/1718 VRB05KT 6SM BR BKN060
     FM162000 29007KT P6SM SCT050 SCT150
     FM170100 34004KT P6SM FEW050 SCT250
     FM170400 VRB03KT P6SM SKC
     FM171300 02006KT P6SM SKC=



000
FTUS41 KOKX 161700
TAFLGA
TAF
KLGA 161732Z 1618/1718 02007KT P6SM FEW008 SCT025 BKN060
     FM162000 36008KT P6SM SCT050
     FM170200 34006KT P6SM FEW050
     FM170500 01006KT P6SM FEW250
     FM171300 03008KT P6SM SKC=



000
FTUS41 KOKX 161700
TAFBDR
TAF
KBDR 161732Z 1618/1718 33008KT P6SM OVC070
     FM162100 26007KT P6SM SCT050 SCT150
     FM170200 34005KT P6SM FEW050 SCT250
     FM170500 VRB05KT P6SM SKC
     FM171300 03007KT P6SM SKC=



000
FTUS41 KOKX 161700
TAFEWR
TAF
KEWR 161732Z 1618/1724 02007KT 6SM BR FEW010 BKN035
     FM162000 29008KT P6SM SCT050 SCT150
     FM170100 34007KT P6SM FEW050 SCT250
     FM170500 01007KT P6SM FEW250
     FM171300 02006KT P6SM SKC
     FM171900 20008KT P6SM SCT050=



000
FTUS41 KOKX 161700
TAFGON
TAF
KGON 161732Z 1618/1718 VRB03KT P6SM BKN070
     FM162000 23007KT P6SM SCT050 SCT150
     FM170200 33005KT P6SM FEW050 SCT250
     FM170500 VRB05KT P6SM SKC
     FM171400 32007KT P6SM SKC=



000
FTUS41 KOKX 161600 AAC
TAFISP
TAF AMD
KISP 161606Z 1616/1712 34008KT 4SM -SHRA BKN015
     FM161700 30007KT P6SM SCT015 BKN035 BKN100
     FM162100 26007KT P6SM SCT050 SCT150
     FM170200 34007KT P6SM FEW050 SCT250
     FM170500 35005KT P6SM SKC=



000
FTUS41 KOKX 161600 AAF
TAFEWR
TAF AMD
KEWR 161604Z 1616/1718 02007KT P6SM FEW007 BKN015 BKN030
     FM161700 32007KT P6SM FEW025 BKN040 BKN100
     FM162000 32008KT P6SM SCT050 SCT150
     FM170100 34007KT P6SM FEW050 SCT250
     FM170500 01009KT P6SM SKC
     FM171300 02005KT P6SM SKC=



000
FTUS41 KOKX 161400 AAB
TAFGON
TAF AMD
KGON 161435Z 1615/1712 VRB03KT P6SM -SHRA BKN040 OVC060
      TEMPO 1616/1617 4SM -SHRA BKN025
     FM161700 25008KT P6SM BKN050 BKN100
     FM162200 25007KT P6SM SCT050 SCT150
     FM170300 34007KT P6SM FEW050 SCT250
     FM170700 35005KT P6SM SKC=



000
FTUS41 KOKX 161400 AAB
TAFISP
TAF AMD
KISP 161435Z 1615/1712 33008KT 4SM -SHRA BKN020 OVC040
      TEMPO 1615/1616 2SM -SHRA
     FM161600 30007KT P6SM BKN040 BKN100
     FM162100 26007KT P6SM SCT050 SCT150
     FM170200 34007KT P6SM FEW050 SCT250
     FM170500 35005KT P6SM SKC=



000
FTUS41 KOKX 161400 AAE
TAFLGA
TAF AMD
KLGA 161435Z 1615/1712 01007KT 6SM -SHRA FEW008 BKN025 OVC050
      TEMPO 1615/1616 4SM -SHRA BKN015
     FM161600 01008KT P6SM FEW025 BKN035 BKN100
     FM162000 29008KT P6SM SCT050 SCT150
     FM170200 33007KT P6SM FEW050 SCT250
     FM170500 02010KT P6SM SKC=



000
FTUS41 KOKX 161400 AAB
TAFBDR
TAF AMD
KBDR 161435Z 1615/1712 33008KT P6SM -SHRA FEW030 BKN050
      TEMPO 1615/1616 4SM -SHRA BKN025
     FM161600 30007KT P6SM BKN050 BKN100
     FM162100 25007KT P6SM SCT050 SCT150
     FM170200 34007KT P6SM FEW050 SCT250
     FM170500 36004KT P6SM SKC=



000
FTUS41 KOKX 161400 AAA
TAFSWF
TAF AMD
KSWF 161435Z 1615/1718 VRB02KT 6SM BR FEW008 OVC050
     FM161900 30006KT P6SM SCT050 SCT150
     FM170100 VRB02KT P6SM FEW050 SCT250
     FM170600 VRB04KT P6SM SKC
      AMD NOT SKED=



000
FTUS41 KOKX 161400 AAE
TAFJFK
TAF AMD
KJFK 161435Z 1615/1718 02010KT 6SM -SHRA FEW008 BKN025 OVC050
      TEMPO 1615/1616 4SM -SHRA BKN015
     FM161600 01008KT P6SM FEW025 BKN035 BKN100
     FM162000 29008KT P6SM SCT050 SCT150
     FM170200 32007KT P6SM FEW050 SCT250
     FM170500 36010KT P6SM SKC
     FM171300 02006KT P6SM SKC=



000
FTUS41 KOKX 161400 AAE
TAFEWR
TAF AMD
KEWR 161435Z 1615/1718 36007KT 6SM BR FEW007 BKN015 OVC040
     FM161600 32007KT P6SM FEW025 BKN040 BKN100
     FM162000 32008KT P6SM SCT050 SCT150
     FM170100 34007KT P6SM FEW050 SCT250
     FM170500 01009KT P6SM SKC
     FM171300 02005KT P6SM SKC=



000
FTUS41 KOKX 161400 AAE
TAFTEB
TAF AMD
KTEB 161435Z 1615/1712 VRB05KT 6SM BR SCT025 OVC035
     FM161600 VRB05KT P6SM BKN040 BKN100
     FM162000 28007KT P6SM SCT050 SCT150
     FM170100 34006KT P6SM FEW050 SCT250
     FM170400 36004KT P6SM SKC=



000
FTUS41 KOKX 161300 AAD
TAFJFK
TAF AMD
KJFK 161359Z 1614/1718 35010KT 5SM -SHRA FEW008 BKN025 OVC050
      TEMPO 1614/1615 3SM SHRA BR BKN015
     FM161500 32007KT P6SM BKN040 BKN100
     FM162000 27008KT P6SM SCT050 SCT150
     FM170200 32007KT P6SM FEW050 SCT250
     FM170500 36010KT P6SM SKC
     FM171300 02006KT P6SM SKC=



000
FTUS41 KOKX 161300 AAD
TAFLGA
TAF AMD
KLGA 161359Z 1614/1712 02007KT 5SM -SHRA FEW008 BKN025 OVC050
      TEMPO 1614/1615 3SM SHRA BR BKN015
     FM161500 32008KT P6SM BKN040 BKN100
     FM162000 29008KT P6SM SCT050 SCT150
     FM170200 33007KT P6SM FEW050 SCT250
     FM170500 02010KT P6SM SKC=



000
FTUS41 KOKX 161300 AAD
TAFTEB
TAF AMD
KTEB 161359Z 1614/1712 VRB05KT 5SM -SHRA BR SCT025 OVC035
      TEMPO 1614/1615 2SM SHRA BR BKN015
     FM161500 VRB05KT P6SM BKN040 BKN100
     FM162000 28007KT P6SM SCT050 SCT150
     FM170100 34006KT P6SM FEW050 SCT250
     FM170400 36004KT P6SM SKC=



000
FTUS41 KOKX 161300 AAD
TAFEWR
TAF AMD
KEWR 161359Z 1614/1718 02007KT 6SM -SHRA BR FEW007 BKN015 OVC040
      TEMPO 1614/1615 3SM SHRA BR BKN012
     FM161500 28007KT P6SM BKN040 BKN100
     FM162000 29008KT P6SM SCT050 SCT150
     FM170100 34007KT P6SM FEW050 SCT250
     FM170500 01009KT P6SM SKC
     FM171300 02005KT P6SM SKC=



000
FTUS41 KOKX 161300 AAC
TAFJFK
TAF AMD
KJFK 161325Z 1613/1718 25009KT 5SM -SHRA BKN025 BKN030
      TEMPO 1613/1614 2SM SHRA BR BKN012
     FM161500 24007KT P6SM BKN040 BKN100
     FM162000 27008KT P6SM SCT050 SCT150
     FM170200 32007KT P6SM FEW050 SCT250
     FM170500 36010KT P6SM SKC
     FM171300 02006KT P6SM SKC=



000
FTUS41 KOKX 161300 AAC
TAFLGA
TAF AMD
KLGA 161325Z 1613/1712 33007KT 5SM -SHRA BKN025 BKN030
      TEMPO 1613/1614 2SM SHRA BR BKN012
     FM161500 30008KT P6SM BKN040 BKN100
     FM162000 29008KT P6SM SCT050 SCT150
     FM170200 33007KT P6SM FEW050 SCT250
     FM170500 02010KT P6SM SKC=



000
FTUS41 KOKX 161300 AAA
TAFISP
TAF AMD
KISP 161313Z 1613/1712 VRB02KT P6SM -SHRA FEW030 SCT040 BKN150
     FM161400 VRB05KT 4SM SHRA BR BKN020 OVC035
      TEMPO 1614/1615 2SM SHRA
     FM161600 24007KT P6SM BKN050 BKN100
     FM162100 26007KT P6SM SCT050 SCT150
     FM170200 34007KT P6SM FEW050 SCT250
     FM170500 35005KT P6SM SKC=



000
FTUS41 KOKX 161300 AAA
TAFGON
TAF AMD
KGON 161313Z 1613/1712 VRB03KT P6SM SCT025 BKN040
     FM161400 VRB05KT 6SM -SHRA BR BKN020 OVC035
      TEMPO 1615/1616 2SM SHRA
     FM161700 25008KT P6SM BKN050 BKN100
     FM162200 25007KT P6SM SCT050 SCT150
     FM170300 34007KT P6SM FEW050 SCT250
     FM170700 35005KT P6SM SKC=



000
FTUS41 KOKX 161300 AAA
TAFBDR
TAF AMD
KBDR 161313Z 1613/1712 VRB03KT P6SM -SHRA FEW030 SCT040 BKN150
     FM161400 VRB05KT 4SM SHRA BR BKN020 OVC035
      TEMPO 1614/1615 2SM SHRA
     FM161600 24007KT P6SM BKN050 BKN100
     FM162100 25007KT P6SM SCT050 SCT150
     FM170200 34007KT P6SM FEW050 SCT250
     FM170500 36004KT P6SM SKC=



000
FTUS41 KOKX 161200 AAC
TAFTEB
TAF AMD
KTEB 161256Z 1613/1712 VRB03KT 6SM BR VCSH SCT020 OVC035
      TEMPO 1613/1614 2SM SHRA BR BKN015
     FM161500 VRB05KT P6SM BKN040 BKN100
     FM162000 28007KT P6SM SCT050 SCT150
     FM170100 34006KT P6SM FEW050 SCT250
     FM170400 36004KT P6SM SKC=



000
FTUS41 KOKX 161200 AAC
TAFEWR
TAF AMD
KEWR 161256Z 1613/1718 33007KT 6SM BR SCT020 OVC035
      TEMPO 1613/1614 2SM SHRA BR BKN015
     FM161500 28007KT P6SM BKN040 BKN100
     FM162000 29008KT P6SM SCT050 SCT150
     FM170100 34007KT P6SM FEW050 SCT250
     FM170500 01009KT P6SM SKC
     FM171300 02005KT P6SM SKC=



000
FTUS41 KOKX 161200 AAB
TAFLGA
TAF AMD
KLGA 161240Z 1613/1712 23004KT P6SM VCSH SCT025 BKN040 OVC100
      TEMPO 1613/1614 2SM -SHRA BR BKN020
     FM161500 28008KT P6SM BKN040 BKN100
     FM162000 29008KT P6SM SCT050 SCT150
     FM170200 33007KT P6SM FEW050 SCT250
     FM170500 02010KT P6SM SKC=



000
FTUS41 KOKX 161200 AAB
TAFJFK
TAF AMD
KJFK 161240Z 1613/1718 22004KT P6SM VCSH SCT025 BKN040 OVC100
      TEMPO 1613/1614 2SM -SHRA BR BKN020
     FM161500 24007KT P6SM BKN040 BKN100
     FM162000 27008KT P6SM SCT050 SCT150
     FM170200 32007KT P6SM FEW050 SCT250
     FM170500 36010KT P6SM SKC
     FM171300 02006KT P6SM SKC=



000
FTUS41 KOKX 161200 AAB
TAFTEB
TAF AMD
KTEB 161229Z 1612/1712 VRB03KT P6SM VCSH SCT025 BKN040 OVC100
      TEMPO 1612/1613 2SM SHRA BR BKN025
     FM161500 VRB05KT P6SM BKN040 BKN100
     FM162000 28007KT P6SM SCT050 SCT150
     FM170100 34006KT P6SM FEW050 SCT250
     FM170400 36004KT P6SM SKC=



000
FTUS41 KOKX 161200 AAB
TAFEWR
TAF AMD
KEWR 161229Z 1612/1718 VRB03KT P6SM VCSH SCT025 BKN040 OVC100
      TEMPO 1612/1613 2SM SHRA BR BKN025
     FM161500 28007KT P6SM BKN040 BKN100
     FM162000 29008KT P6SM SCT050 SCT150
     FM170100 34007KT P6SM FEW050 SCT250
     FM170500 01009KT P6SM SKC
     FM171300 02005KT P6SM SKC=



000
FTUS41 KOKX 161200 AAA
TAFLGA
TAF AMD
KLGA 161208Z 1612/1712 23004KT P6SM VCSH SCT025 BKN040 OVC100
      TEMPO 1612/1613 3SM -SHRA BR
     FM161500 28008KT P6SM BKN040 BKN100
     FM162000 29008KT P6SM SCT050 SCT150
     FM170200 33007KT P6SM FEW050 SCT250
     FM170500 02010KT P6SM SKC=



000
FTUS41 KOKX 161200 AAA
TAFEWR
TAF AMD
KEWR 161208Z 1612/1718 VRB03KT P6SM VCSH SCT025 BKN040 OVC100
      TEMPO 1612/1613 3SM -SHRA BR
     FM161500 28007KT P6SM BKN040 BKN100
     FM162000 29008KT P6SM SCT050 SCT150
     FM170100 34007KT P6SM FEW050 SCT250
     FM170500 01009KT P6SM SKC
     FM171300 02005KT P6SM SKC=



000
FTUS41 KOKX 161200 AAA
TAFTEB
TAF AMD
KTEB 161208Z 1612/1712 VRB03KT P6SM VCSH SCT025 BKN040 OVC100
      TEMPO 1612/1613 3SM -SHRA BR
     FM161500 VRB05KT P6SM BKN040 BKN100
     FM162000 28007KT P6SM SCT050 SCT150
     FM170100 34006KT P6SM FEW050 SCT250
     FM170400 36004KT P6SM SKC=



000
FTUS41 KOKX 161200 AAA
TAFJFK
TAF AMD
KJFK 161208Z 1612/1718 22004KT P6SM VCSH SCT025 BKN040 OVC100
      TEMPO 1612/1613 3SM -SHRA BR
     FM161500 24007KT P6SM BKN040 BKN100
     FM162000 27008KT P6SM SCT050 SCT150
     FM170200 32007KT P6SM FEW050 SCT250
     FM170500 36010KT P6SM SKC
     FM171300 02006KT P6SM SKC=



000
FTUS41 KOKX 161100
TAFSWF
TAF
KSWF 161122Z 1612/1718 VRB02KT 6SM -SHRA FEW030 BKN040 OVC100
     FM161400 31004KT P6SM BKN040 BKN100
     FM161900 30006KT P6SM SCT050 SCT150
     FM170100 VRB02KT P6SM FEW050 SCT250
     FM170600 VRB04KT P6SM SKC
      AMD NOT SKED=



000
FTUS41 KOKX 161100
TAFISP
TAF
KISP 161122Z 1612/1712 VRB02KT P6SM FEW030 SCT040 BKN150
     FM161300 VRB03KT P6SM VCSH FEW030 BKN040 OVC100
      TEMPO 1613/1614 -SHRA
     FM161600 24007KT P6SM BKN050 BKN100
     FM162100 26007KT P6SM SCT050 SCT150
     FM170200 34007KT P6SM FEW050 SCT250
     FM170500 35005KT P6SM SKC=



000
FTUS41 KOKX 161100
TAFLGA
TAF
KLGA 161122Z 1612/1712 20004KT P6SM VCSH FEW030 BKN040 OVC100
      TEMPO 1612/1613 -SHRA
     FM161500 28008KT P6SM BKN040 BKN100
     FM162000 29008KT P6SM SCT050 SCT150
     FM170200 33007KT P6SM FEW050 SCT250
     FM170500 02010KT P6SM SKC=



000
FTUS41 KOKX 161100
TAFTEB
TAF
KTEB 161122Z 1612/1712 VRB03KT P6SM VCSH FEW030 BKN040 OVC100
      TEMPO 1612/1613 -SHRA
     FM161500 VRB05KT P6SM BKN040 BKN100
     FM162000 28007KT P6SM SCT050 SCT150
     FM170100 34006KT P6SM FEW050 SCT250
     FM170400 36004KT P6SM SKC=



000
FTUS41 KOKX 161100
TAFEWR
TAF
KEWR 161122Z 1612/1718 VRB03KT P6SM VCSH FEW030 BKN040 OVC100
      TEMPO 1612/1613 -SHRA
     FM161500 28007KT P6SM BKN040 BKN100
     FM162000 29008KT P6SM SCT050 SCT150
     FM170100 34007KT P6SM FEW050 SCT250
     FM170500 01009KT P6SM SKC
     FM171300 02005KT P6SM SKC=



000
FTUS41 KOKX 161100
TAFBDR
TAF
KBDR 161122Z 1612/1712 VRB03KT P6SM SCT030 SCT040 BKN150
     FM161300 VRB03KT P6SM VCSH FEW030 BKN040 OVC100
      TEMPO 1613/1614 -SHRA
     FM161600 24007KT P6SM BKN050 BKN100
     FM162100 25007KT P6SM SCT050 SCT150
     FM170200 34007KT P6SM FEW050 SCT250
     FM170500 36004KT P6SM SKC=



000
FTUS41 KOKX 161100
TAFJFK
TAF
KJFK 161122Z 1612/1718 22004KT P6SM VCSH FEW030 BKN040 OVC100
      TEMPO 1612/1613 -SHRA
     FM161500 24007KT P6SM BKN040 BKN100
     FM162000 27008KT P6SM SCT050 SCT150
     FM170200 32007KT P6SM FEW050 SCT250
     FM170500 36010KT P6SM SKC
     FM171300 02006KT P6SM SKC=



000
FTUS41 KOKX 161100
TAFGON
TAF
KGON 161122Z 1612/1712 VRB03KT P6SM SCT040 BKN150
     FM161400 22006KT P6SM VCSH BKN040 OVC100
      TEMPO 1614/1615 -SHRA
     FM161700 25008KT P6SM BKN050 BKN100
     FM162200 25007KT P6SM SCT050 SCT150
     FM170300 34007KT P6SM FEW050 SCT250
     FM170700 35005KT P6SM SKC=



000
FTUS41 KOKX 161000 AAB
TAFSWF
TAF AMD
KSWF 161017Z 1610/1712 VRB02KT P6SM -SHRA BKN040 OVC100
     FM161400 VRB04KT P6SM BKN060 BKN100
     FM161900 30006KT P6SM SCT060 SCT150
     FM170100 VRB02KT P6SM SCT250
     FM170600 35004KT P6SM SCT250
      AMD NOT SKED=



000
FTUS41 KOKX 161000 AAB
TAFLGA
TAF AMD
KLGA 161015Z 1610/1706 20004KT P6SM BKN040 BKN150
      TEMPO 1611/1613 -SHRA
     FM161300 VRB04KT P6SM VCSH BKN040 OVC100
     FM161500 28008KT P6SM BKN050 BKN100
     FM162000 29008KT P6SM SCT050 SCT150
     FM170200 33007KT P6SM FEW050 SCT250=



000
FTUS41 KOKX 161000 AAB
TAFTEB
TAF AMD
KTEB 161015Z 1610/1706 VRB02KT P6SM BKN040 BKN150
      TEMPO 1611/1613 -SHRA
     FM161300 VRB03KT P6SM VCSH BKN040 OVC100
     FM161500 VRB05KT P6SM BKN050 BKN100
     FM162000 28007KT P6SM SCT050 SCT150
     FM170100 34006KT P6SM FEW050 SCT250=



000
FTUS41 KOKX 161000 AAB
TAFEWR
TAF AMD
KEWR 161015Z 1610/1712 21004KT P6SM BKN040 BKN150
      TEMPO 1611/1613 -SHRA
     FM161300 VRB03KT P6SM VCSH BKN040 OVC100
     FM161500 28007KT P6SM BKN050 BKN100
     FM162000 29008KT P6SM SCT050 SCT150
     FM170100 34007KT P6SM FEW050 SCT250
     FM170500 01009KT P6SM SKC=



000
FTUS41 KOKX 161000 AAB
TAFJFK
TAF AMD
KJFK 161013Z 1610/1712 21006KT P6SM BKN040 BKN150
      TEMPO 1611/1613 -SHRA
     FM161300 22005KT P6SM VCSH BKN040 OVC100
     FM161500 24007KT P6SM BKN050 BKN100
     FM162000 26008KT P6SM SCT050 SCT150
     FM170200 32007KT P6SM FEW050 SCT250
     FM170500 36010KT P6SM SKC=



000
FTUS41 KOKX 160800 AAA
TAFBDR
TAF AMD
KBDR 160830Z 1609/1706 20006KT P6SM BKN040 BKN150
     FM161300 VRB03KT P6SM VCSH BKN040 OVC100
     FM161600 24007KT P6SM BKN060 BKN100
     FM162100 25007KT P6SM SCT060 SCT150
     FM170200 34007KT P6SM SCT250=



000
FTUS41 KOKX 160800 AAA
TAFLGA
TAF AMD
KLGA 160830Z 1609/1706 21005KT P6SM BKN040 BKN150
     FM161200 VRB04KT P6SM VCSH BKN040 OVC100
     FM161500 28008KT P6SM BKN060 BKN100
     FM162000 29008KT P6SM SCT060 SCT150
     FM170200 33007KT P6SM SCT250=



000
FTUS41 KOKX 160800 AAA
TAFISP
TAF AMD
KISP 160830Z 1609/1706 VRB02KT P6SM BKN040 BKN150
     FM161300 VRB03KT P6SM VCSH BKN040 OVC100
     FM161600 24007KT P6SM BKN060 BKN100
     FM162100 26007KT P6SM SCT060 SCT150
     FM170200 34007KT P6SM SCT250=



000
FTUS41 KOKX 160800 AAA
TAFEWR
TAF AMD
KEWR 160830Z 1609/1712 21004KT P6SM BKN040 BKN150
     FM161200 VRB03KT P6SM VCSH BKN040 OVC100
     FM161500 28007KT P6SM BKN060 BKN100
     FM162000 29008KT P6SM SCT060 SCT150
     FM170100 34007KT P6SM SCT250
     FM170500 01009KT P6SM SCT250=



000
FTUS41 KOKX 160800 AAA
TAFSWF
TAF AMD
KSWF 160830Z 1609/1712 VRB04KT P6SM BKN040 BKN150
     FM161000 VRB02KT P6SM -SHRA BKN040 OVC100
     FM161400 VRB04KT P6SM BKN060 BKN100
     FM161900 30006KT P6SM SCT060 SCT150
     FM170100 VRB02KT P6SM SCT250
     FM170600 35004KT P6SM SCT250
      AMD NOT SKED=



000
FTUS41 KOKX 160800 AAA
TAFJFK
TAF AMD
KJFK 160830Z 1609/1712 21006KT P6SM BKN040 BKN150
     FM161200 22005KT P6SM VCSH BKN040 OVC100
     FM161500 24007KT P6SM BKN060 BKN100
     FM162000 26008KT P6SM SCT060 SCT150
     FM170200 32007KT P6SM SCT250
     FM170500 36010KT P6SM SCT250=



000
FTUS41 KOKX 160800 AAA
TAFTEB
TAF AMD
KTEB 160830Z 1609/1706 VRB02KT P6SM BKN040 BKN150
     FM161200 VRB03KT P6SM VCSH BKN040 OVC100
     FM161500 VRB05KT P6SM BKN060 BKN100
     FM162000 28007KT P6SM SCT060 SCT150
     FM170100 34006KT P6SM SCT250=



000
FTUS41 KOKX 160800 AAA
TAFGON
TAF AMD
KGON 160830Z 1609/1706 VRB03KT P6SM SCT040 BKN150
     FM161400 22007KT P6SM VCSH BKN040 OVC100
     FM161700 25008KT P6SM BKN060 BKN100
     FM162200 25007KT P6SM SCT060 SCT150
     FM170300 34007KT P6SM SCT250=



000
FTUS41 KOKX 160500
TAFGON
TAF
KGON 160522Z 1606/1706 VRB03KT P6SM SCT040 BKN150
     FM161200 VRB03KT P6SM VCSH BKN040 OVC100
     FM161700 25007KT P6SM BKN060 BKN100
     FM162200 25007KT P6SM SCT060 SCT150
     FM170300 34007KT P6SM SCT250=



000
FTUS41 KOKX 160500
TAFJFK
TAF
KJFK 160522Z 1606/1712 22005KT P6SM SCT040 OVC150
     FM161000 22005KT P6SM VCSH BKN040 OVC100
     FM161500 24007KT P6SM BKN060 BKN100
     FM162000 25008KT P6SM SCT060 SCT150
     FM170200 32007KT P6SM SCT250
     FM170500 36010KT P6SM SCT250=



000
FTUS41 KOKX 160500
TAFISP
TAF
KISP 160522Z 1606/1706 VRB02KT P6SM SCT040 OVC150
     FM161100 VRB03KT P6SM VCSH BKN040 OVC100
     FM161600 24007KT P6SM BKN060 BKN100
     FM162100 26007KT P6SM SCT060 SCT150
     FM170200 34007KT P6SM SCT250=



000
FTUS41 KOKX 160500
TAFSWF
TAF
KSWF 160522Z 1606/1712 VRB04KT P6SM FEW040 BKN150
     FM160900 VRB02KT P6SM -SHRA BKN040 OVC100
     FM161400 VRB04KT P6SM BKN060 BKN100
     FM161900 30006KT P6SM SCT060 SCT150
     FM170100 VRB02KT P6SM SCT250
     FM170600 35004KT P6SM SCT250
      AMD NOT SKED=



000
FTUS41 KOKX 160500
TAFBDR
TAF
KBDR 160522Z 1606/1706 VRB03KT P6SM SCT040 OVC150
     FM161100 VRB03KT P6SM VCSH BKN040 OVC100
     FM161600 24007KT P6SM BKN060 BKN100
     FM162100 25007KT P6SM SCT060 SCT150
     FM170200 34007KT P6SM SCT250=



000
FTUS41 KOKX 160500
TAFTEB
TAF
KTEB 160522Z 1606/1706 VRB02KT P6SM SCT040 OVC150
     FM161000 VRB03KT P6SM VCSH BKN040 OVC100
     FM161500 VRB05KT P6SM BKN060 BKN100
     FM162000 28007KT P6SM SCT060 SCT150
     FM170100 34006KT P6SM SCT250=



000
FTUS41 KOKX 160500
TAFEWR
TAF
KEWR 160522Z 1606/1712 21004KT P6SM SCT040 OVC150
     FM161000 VRB03KT P6SM VCSH BKN040 OVC100
     FM161500 28007KT P6SM BKN060 BKN100
     FM162000 28008KT P6SM SCT060 SCT150
     FM170100 34007KT P6SM SCT250
     FM170500 01009KT P6SM SCT250=



000
FTUS41 KOKX 160500
TAFLGA
TAF
KLGA 160522Z 1606/1706 22005KT P6SM SCT040 OVC150
     FM161000 VRB04KT P6SM VCSH BKN040 OVC100
     FM161500 28008KT P6SM BKN060 BKN100
     FM162000 29008KT P6SM SCT060 SCT150
     FM170200 33007KT P6SM SCT250=



000
FTUS41 KOKX 160300 AAB
TAFJFK
TAF AMD
KJFK 160318Z 1603/1706 23005KT P6SM SCT040 OVC150
     FM161000 VRB05KT P6SM VCSH BKN050 OVC150
     FM161500 30009KT P6SM BKN070 BKN150
     FM162000 25008KT P6SM SCT070 SCT150
     FM170200 32007KT P6SM SKC=



000
FTUS41 KOKX 160200 AAA
TAFISP
TAF AMD
KISP 160232Z 1603/1624 VRB03KT P6SM SCT150 OVC250
     FM161100 VRB03KT P6SM VCSH BKN050 OVC150
     FM161600 30007KT P6SM BKN070 BKN150
     FM162100 26007KT P6SM SCT070 SCT150=



000
FTUS41 KOKX 160200 AAA
TAFTEB
TAF AMD
KTEB 160232Z 1603/1624 VRB02KT P6SM SCT050 OVC150
     FM161000 VRB03KT P6SM VCSH BKN050 OVC150
     FM161500 VRB05KT P6SM BKN070 BKN150
     FM162000 28007KT P6SM SCT070 SCT150=



000
FTUS41 KOKX 160200 AAA
TAFEWR
TAF AMD
KEWR 160232Z 1603/1706 18008KT P6SM FEW060 BKN150 BKN250
     FM160600 22005KT P6SM SCT050 OVC150
     FM161000 VRB03KT P6SM VCSH BKN050 OVC150
     FM161500 32009KT P6SM BKN070 BKN150
     FM162000 28008KT P6SM SCT070 SCT150
     FM170200 35007KT P6SM SKC=



000
FTUS41 KOKX 160200 AAA
TAFBDR
TAF AMD
KBDR 160232Z 1603/1624 VRB03KT P6SM SCT050 OVC150
     FM161100 VRB03KT P6SM VCSH BKN050 OVC150
     FM161600 28007KT P6SM BKN070 BKN150=



000
FTUS41 KOKX 160200 AAA
TAFGON
TAF AMD
KGON 160232Z 1603/1624 VRB03KT P6SM BKN150
     FM161200 VRB03KT P6SM VCSH BKN050 OVC150
     FM161700 25007KT P6SM BKN070 BKN150=



000
FTUS41 KOKX 160200 AAA
TAFSWF
TAF AMD
KSWF 160232Z 1603/1706 VRB04KT P6SM FEW060 BKN150
     FM160900 VRB02KT P6SM -SHRA BKN050 OVC150
     FM161400 VRB04KT P6SM BKN070 BKN150
     FM161900 30006KT P6SM SCT070 SCT150
     FM170200 VRB02KT P6SM SKC
      AMD NOT SKED=



000
FTUS41 KOKX 160200 AAA
TAFLGA
TAF AMD
KLGA 160232Z 1603/1624 20008KT P6SM SCT150 BKN250
     FM160600 22005KT P6SM SCT050 OVC150
     FM161000 VRB04KT P6SM VCSH BKN050 OVC150
     FM161500 32009KT P6SM BKN070 BKN150
     FM162000 26008KT P6SM SCT070 SCT150=



000
FTUS41 KOKX 160200 AAA
TAFJFK
TAF AMD
KJFK 160232Z 1603/1706 18008KT P6SM SCT150 BKN250
     FM160600 23005KT P6SM SCT050 OVC150
     FM161000 VRB05KT P6SM VCSH BKN050 OVC150
     FM161500 30009KT P6SM BKN070 BKN150
     FM162000 25008KT P6SM SCT070 SCT150
     FM170200 32007KT P6SM SKC=



000
FTUS41 KOKX 152300
TAFISP
TAF
KISP 152330Z 1600/1624 18008KT P6SM BKN250
     FM160200 VRB03KT P6SM SCT050 OVC150
     FM161100 VRB03KT P6SM VCSH BKN050 OVC150
     FM161600 30007KT P6SM BKN070 BKN150
     FM162100 26007KT P6SM SCT070 SCT150=



000
FTUS41 KOKX 152300
TAFGON
TAF
KGON 152330Z 1600/1624 VRB03KT P6SM BKN150
     FM161200 VRB03KT P6SM VCSH BKN050 OVC150
     FM161700 25007KT P6SM BKN070 BKN150=



000
FTUS41 KOKX 152300
TAFTEB
TAF
KTEB 152330Z 1600/1624 18005KT P6SM BKN150
     FM160200 VRB02KT P6SM SCT050 OVC150
     FM161000 VRB03KT P6SM VCSH BKN050 OVC150
     FM161500 VRB05KT P6SM BKN070 BKN150
     FM162000 28007KT P6SM SCT070 SCT150=



000
FTUS41 KOKX 152300
TAFJFK
TAF
KJFK 152330Z 1600/1706 18008KT P6SM FEW060 BKN250
     FM160600 23005KT P6SM SCT050 OVC150
     FM161000 VRB05KT P6SM VCSH BKN050 OVC150
     FM161500 30009KT P6SM BKN070 BKN150
     FM162000 25008KT P6SM SCT070 SCT150
     FM170200 32007KT P6SM SKC=



000
FTUS41 KOKX 152300
TAFBDR
TAF
KBDR 152330Z 1600/1624 VRB03KT P6SM SCT050 OVC150
     FM161100 VRB03KT P6SM VCSH BKN050 OVC150
     FM161600 28007KT P6SM BKN070 BKN150=



000
FTUS41 KOKX 152300
TAFLGA
TAF
KLGA 152330Z 1600/1624 20008KT P6SM FEW060 BKN250
     FM160600 22005KT P6SM SCT050 OVC150
     FM161000 VRB04KT P6SM VCSH BKN050 OVC150
     FM161500 32009KT P6SM BKN070 BKN150
     FM162000 26008KT P6SM SCT070 SCT150=



000
FTUS41 KOKX 152300
TAFEWR
TAF
KEWR 152330Z 1600/1706 16008KT P6SM FEW060 BKN250
     FM160600 22005KT P6SM SCT050 OVC150
     FM161000 VRB03KT P6SM VCSH BKN050 OVC150
     FM161500 32009KT P6SM BKN070 BKN150
     FM162000 28008KT P6SM SCT070 SCT150
     FM170200 35007KT P6SM SKC=



000
FTUS41 KOKX 152300
TAFSWF
TAF
KSWF 152330Z 1600/1706 VRB04KT P6SM FEW060 BKN150
     FM160900 VRB02KT P6SM -SHRA BKN050 OVC150
     FM161400 VRB04KT P6SM BKN070 BKN150
     FM161900 30006KT P6SM SCT070 SCT150
     FM170200 VRB02KT P6SM SKC
      AMD NOT SKED=



000
FTUS41 KOKX 151900 AAB
TAFEWR
TAF AMD
KEWR 151942Z 1520/1624 16008KT P6SM FEW060 SCT250
     FM152300 19005KT P6SM SCT250
     FM160600 22005KT P6SM BKN150
     FM161000 VRB04KT P6SM VCSH BKN040
     FM161400 30006KT P6SM BKN080
     FM161700 32007KT P6SM SCT250=



000
FTUS41 KOKX 151900 AAC
TAFJFK
TAF AMD
KJFK 151942Z 1520/1624 19009KT P6SM FEW060 SCT250
     FM160600 23006KT P6SM BKN150
     FM161000 25006KT P6SM VCSH BKN050
     FM161400 28008KT P6SM BKN070
     FM161700 30010KT P6SM BKN100
     FM162000 32009KT P6SM SKC=



000
FTUS41 KOKX 151900 AAA
TAFISP
TAF AMD
KISP 151942Z 1520/1618 VRB05KT P6SM FEW045 SCT250
     FM152200 22006KT P6SM FEW050 SCT250
     FM160000 VRB03KT P6SM SCT250
     FM161100 VRB04KT P6SM VCSH BKN050
     FM161500 31006KT P6SM BKN090=



000
FTUS41 KOKX 151900 AAA
TAFGON
TAF AMD
KGON 151942Z 1520/1618 20008KT P6SM SCT250
     FM152300 VRB03KT P6SM SCT250
     FM161200 VRB04KT P6SM VCSH BKN045
     FM161600 23006KT P6SM BKN070=



000
FTUS41 KOKX 151900 AAA
TAFBDR
TAF AMD
KBDR 151942Z 1520/1618 20009KT P6SM SCT250
     FM160200 VRB04KT P6SM SCT250
     FM161100 VRB03KT P6SM VCSH BKN040
     FM161500 30006KT P6SM BKN090
     FM161700 27006KT P6SM SCT250=



000
FTUS41 KOKX 151900 AAA
TAFTEB
TAF AMD
KTEB 151942Z 1520/1618 VRB03KT P6SM SCT250
     FM161000 VRB03KT P6SM VCSH BKN040
     FM161400 VRB05KT P6SM BKN080
     FM161700 32006KT P6SM SCT250=



000
FTUS41 KOKX 151900 AAA
TAFLGA
TAF AMD
KLGA 151942Z 1520/1618 VRB05KT P6SM FEW060 SCT250
     FM152200 17006KT P6SM FEW060 SCT250
     FM160600 21006KT P6SM BKN150
     FM161000 23006KT P6SM VCSH BKN050
     FM161400 29007KT P6SM BKN070
     FM161700 31009KT P6SM BKN100=



000
FTUS41 KOKX 151900 AAA
TAFEWR
TAF AMD
KEWR 151917Z 1519/1624 16008KT P6SM FEW060 SCT250
     FM152300 18005KT P6SM SCT250
     FM160600 21005KT P6SM BKN150
     FM161000 VRB04KT P6SM VCSH BKN040
     FM161400 30006KT P6SM BKN080
     FM161700 32007KT P6SM SCT250=



000
FTUS41 KOKX 151900 AAB
TAFJFK
TAF AMD
KJFK 151915Z 1519/1624 19008KT P6SM FEW060 SCT250
     FM160600 23006KT P6SM BKN150
     FM161000 25006KT P6SM VCSH BKN050
     FM161400 28008KT P6SM BKN070
     FM161700 30010KT P6SM BKN100
     FM162000 32009KT P6SM SKC=



000
FTUS41 KOKX 151800 AAA
TAFJFK
TAF AMD
KJFK 151823Z 1518/1624 18008KT P6SM FEW060 SCT250
     FM160600 23006KT P6SM BKN150
     FM161000 25006KT P6SM VCSH BKN050
     FM161400 28008KT P6SM BKN070
     FM161700 30010KT P6SM BKN100
     FM162000 32009KT P6SM SKC=



000
FTUS41 KOKX 151700
TAFGON
TAF
KGON 151724Z 1518/1618 21006KT P6SM SCT250
     FM152300 VRB03KT P6SM SCT250
     FM161200 VRB04KT P6SM VCSH BKN045
     FM161600 23006KT P6SM BKN070=



000
FTUS41 KOKX 151700
TAFEWR
TAF
KEWR 151724Z 1518/1624 VRB05KT P6SM FEW060 SCT250
     FM152100 16006KT P6SM FEW060 SCT250
     FM152300 18005KT P6SM SCT250
     FM160600 21005KT P6SM BKN150
     FM161000 VRB04KT P6SM VCSH BKN040
     FM161400 30006KT P6SM BKN080
     FM161700 32007KT P6SM SCT250=



000
FTUS41 KOKX 151700
TAFISP
TAF
KISP 151724Z 1518/1618 VRB05KT P6SM FEW060 SCT250
     FM152200 22006KT P6SM FEW060 SCT250
     FM160000 VRB03KT P6SM SCT250
     FM161100 VRB04KT P6SM VCSH BKN050
     FM161500 31006KT P6SM BKN090=



000
FTUS41 KOKX 151700
TAFLGA
TAF
KLGA 151724Z 1518/1618 05008KT P6SM FEW050 SCT250
     FM152000 VRB05KT P6SM FEW050 SCT250
     FM152200 17006KT P6SM FEW050 SCT250
     FM160600 21006KT P6SM BKN150
     FM161000 23006KT P6SM VCSH BKN050
     FM161400 29007KT P6SM BKN070
     FM161700 31009KT P6SM BKN100=



000
FTUS41 KOKX 151700
TAFTEB
TAF
KTEB 151724Z 1518/1618 VRB03KT P6SM SCT250
     FM161000 VRB03KT P6SM VCSH BKN040
     FM161400 VRB05KT P6SM BKN080
     FM161700 32006KT P6SM SCT250=



000
FTUS41 KOKX 151700
TAFSWF
TAF
KSWF 151724Z 1518/1624 VRB03KT P6SM SCT040 SCT250
     FM160900 VRB03KT P6SM -SHRA BKN040
     FM161300 VRB04KT P6SM BKN070
     FM161500 33007KT P6SM BKN080
     FM161900 30008KT P6SM SCT250
      AMD NOT SKED=



000
FTUS41 KOKX 151700
TAFBDR
TAF
KBDR 151724Z 1518/1618 21007KT P6SM SCT250
     FM160200 VRB04KT P6SM SCT250
     FM161100 VRB03KT P6SM VCSH BKN040
     FM161500 30006KT P6SM BKN090
     FM161700 27006KT P6SM SCT250=



000
FTUS41 KOKX 151700
TAFJFK
TAF
KJFK 151724Z 1518/1624 VRB05KT P6SM FEW060 SCT250
     FM151900 19009KT P6SM FEW060 SCT250
     FM160600 23006KT P6SM BKN150
     FM161000 25006KT P6SM VCSH BKN050
     FM161400 28008KT P6SM BKN070
     FM161700 30010KT P6SM BKN100
     FM162000 32009KT P6SM SKC=



000
FTUS41 KOKX 151400 AAA
TAFGON
TAF AMD
KGON 151445Z 1515/1612 01007KT P6SM SCT250
     FM151700 22007KT P6SM FEW050
     FM160500 VRB04KT P6SM SCT150 BKN250=



000
FTUS41 KOKX 151400 AAB
TAFJFK
TAF AMD
KJFK 151445Z 1515/1618 02008KT P6SM SCT250
     FM151700 VRB05KT P6SM FEW050
     FM151900 19009KT P6SM FEW050 SCT250
     FM160600 23007KT P6SM BKN150
     FM161000 27007KT 6SM -SHRA BKN035
     FM161500 32012G18KT P6SM FEW050=



000
FTUS41 KOKX 151400 AAA
TAFBDR
TAF AMD
KBDR 151445Z 1515/1612 01006KT P6SM SCT250
     FM151700 20006KT P6SM FEW050
     FM161100 VRB03KT 6SM -SHRA BKN035=



000
FTUS41 KOKX 151400 AAA
TAFTEB
TAF AMD
KTEB 151445Z 1515/1612 VRB04KT P6SM FEW250
     FM152000 19005KT P6SM FEW050 SCT250
     FM160600 VRB03KT P6SM BKN150
     FM161000 VRB03KT 6SM -SHRA BKN035=



000
FTUS41 KOKX 151400 AAA
TAFISP
TAF AMD
KISP 151445Z 1515/1612 34008KT P6SM SCT050 SCT250
     FM151900 VRB05KT P6SM FEW050
     FM152100 21007KT P6SM FEW050 SCT250
     FM160200 VRB04KT P6SM SCT150 BKN250
     FM161100 VRB04KT 6SM -SHRA BKN035=



000
FTUS41 KOKX 151400 AAA
TAFLGA
TAF AMD
KLGA 151445Z 1515/1612 04008KT P6SM FEW250
     FM152000 VRB05KT P6SM FEW050 SCT250
     FM152200 17006KT P6SM FEW050 SCT250
     FM160600 23007KT P6SM BKN150
     FM161000 27007KT 6SM -SHRA BKN035=



000
FTUS41 KOKX 151400 AAA
TAFEWR
TAF AMD
KEWR 151445Z 1515/1618 01007KT P6SM SCT250
     FM151900 VRB05KT P6SM FEW050
     FM152100 14006KT P6SM FEW050 SCT250
     FM152300 18005KT P6SM SCT250
     FM160500 22005KT P6SM BKN150
     FM161000 28005KT 6SM -SHRA BKN035
     FM161500 32012G18KT P6SM FEW050=



000
FTUS41 KOKX 151300 AAA
TAFJFK
TAF AMD
KJFK 151354Z 1514/1618 03008KT P6SM SCT050
     FM151700 23006KT P6SM FEW050
     FM151900 19009KT P6SM FEW050 SCT250
     FM160600 23007KT P6SM BKN150
     FM161000 27007KT 6SM -SHRA BKN035
     FM161500 32012G18KT P6SM FEW050=



000
FTUS41 KOKX 151100
TAFISP
TAF
KISP 151132Z 1512/1612 36006KT P6SM SCT050
     FM151700 28007KT P6SM FEW050
     FM152100 21007KT P6SM FEW050 SCT250
     FM160200 VRB04KT P6SM SCT150 BKN250
     FM161100 VRB04KT 6SM -SHRA BKN035=



000
FTUS41 KOKX 151100
TAFEWR
TAF
KEWR 151132Z 1512/1618 01007KT P6SM SCT050
     FM151700 VRB05KT P6SM FEW050
     FM152000 14006KT P6SM FEW050 SCT250
     FM152300 18005KT P6SM SCT250
     FM160500 22005KT P6SM BKN150
     FM161000 28005KT 6SM -SHRA BKN035
     FM161500 32012G18KT P6SM FEW050=



000
FTUS41 KOKX 151100
TAFSWF
TAF
KSWF 151132Z 1512/1618 VRB04KT P6SM SCT050
     FM160800 VRB04KT 6SM -SHRA BKN040
     FM161300 31010G17KT P6SM FEW040
      AMD NOT SKED=



000
FTUS41 KOKX 151100
TAFGON
TAF
KGON 151132Z 1512/1612 01007KT P6SM SCT050
     FM151900 22007KT P6SM FEW050
     FM160500 VRB04KT P6SM SCT150 BKN250=



000
FTUS41 KOKX 151100
TAFTEB
TAF
KTEB 151132Z 1512/1612 35004KT P6SM SCT050
     FM151700 VRB04KT P6SM FEW050
     FM152000 19005KT P6SM FEW050 SCT250
     FM160600 VRB03KT P6SM BKN150
     FM161000 VRB03KT 6SM -SHRA BKN035=



000
FTUS41 KOKX 151100
TAFBDR
TAF
KBDR 151132Z 1512/1612 36006KT P6SM SCT050
     FM151700 22007KT P6SM FEW050
     FM161100 VRB03KT 6SM -SHRA BKN035=



000
FTUS41 KOKX 151100
TAFJFK
TAF
KJFK 151132Z 1512/1618 01008KT P6SM SCT050
     FM151700 23006KT P6SM FEW050
     FM151900 19009KT P6SM FEW050 SCT250
     FM160600 23007KT P6SM BKN150
     FM161000 27007KT 6SM -SHRA BKN035
     FM161500 32012G18KT P6SM FEW050=



000
FTUS41 KOKX 151100
TAFLGA
TAF
KLGA 151132Z 1512/1612 02007KT P6SM SCT050
     FM152000 20007KT P6SM FEW050 SCT250
     FM160600 23007KT P6SM BKN150
     FM161000 27007KT 6SM -SHRA BKN035=



000
FTUS41 KOKX 150800 AAA
TAFJFK
TAF AMD
KJFK 150835Z 1509/1612 36007KT P6SM FEW045
     FM151700 23006KT P6SM SKC
     FM151900 19009KT P6SM FEW250
     FM160600 23007KT P6SM BKN150 PROB30 1609/1612 -SHRA=



000
FTUS41 KOKX 150800 AAA
TAFGON
TAF AMD
KGON 150835Z 1509/1606 01007KT P6SM FEW040
     FM151900 22007KT P6SM SKC
     FM160200 VRB03KT P6SM FEW150 BKN250=



000
FTUS41 KOKX 150800 AAA
TAFEWR
TAF AMD
KEWR 150835Z 1509/1612 01007KT P6SM FEW045
     FM151700 VRB05KT P6SM SKC
     FM152000 14006KT P6SM FEW250
     FM160000 18005KT P6SM SCT250
     FM160400 VRB04KT P6SM BKN150 PROB30 1609/1612 -SHRA=



000
FTUS41 KOKX 150800 AAA
TAFTEB
TAF AMD
KTEB 150835Z 1509/1606 36004KT P6SM FEW045
     FM151700 VRB04KT P6SM SKC
     FM152000 19005KT P6SM FEW250=



000
FTUS41 KOKX 150800 AAA
TAFLGA
TAF AMD
KLGA 150835Z 1509/1606 02007KT P6SM FEW045
     FM152000 20007KT P6SM FEW250=



000
FTUS41 KOKX 150800 AAA
TAFBDR
TAF AMD
KBDR 150835Z 1509/1606 VRB04KT P6SM FEW045
     FM151800 22007KT P6SM SKC=



000
FTUS41 KOKX 150800 AAA
TAFISP
TAF AMD
KISP 150835Z 1509/1606 VRB04KT P6SM SCT045
     FM151800 28007KT P6SM SKC
     FM152100 21007KT P6SM FEW250
     FM160200 VRB03KT P6SM FEW150 BKN250=



000
FTUS41 KOKX 150500
TAFTEB
TAF
KTEB 150537Z 1506/1606 36004KT P6SM FEW045
     FM151700 VRB04KT P6SM SKC
     FM152000 19005KT P6SM FEW250=



000
FTUS41 KOKX 150500
TAFEWR
TAF
KEWR 150537Z 1506/1612 35006KT P6SM FEW045
     FM151700 VRB05KT P6SM SKC
     FM152000 14006KT P6SM FEW250
     FM160000 18005KT P6SM SCT250
     FM160400 VRB04KT P6SM BKN150 PROB30 1609/1612 -SHRA=



000
FTUS41 KOKX 150500
TAFBDR
TAF
KBDR 150537Z 1506/1606 VRB04KT P6SM FEW045
     FM151800 22007KT P6SM SKC=



000
FTUS41 KOKX 150500
TAFLGA
TAF
KLGA 150537Z 1506/1606 05007KT P6SM FEW045
     FM151400 02006KT P6SM FEW045
     FM152000 20007KT P6SM FEW250=



000
FTUS41 KOKX 150500
TAFSWF
TAF
KSWF 150537Z 1506/1612 VRB04KT P6SM SCT045
     FM160800 VRB04KT 6SM -SHRA BKN040
      AMD NOT SKED=



000
FTUS41 KOKX 150500
TAFJFK
TAF
KJFK 150537Z 1506/1612 VRB05KT P6SM FEW045
     FM151200 35006KT P6SM FEW045
     FM151700 23006KT P6SM SKC
     FM151900 19009KT P6SM FEW250
     FM160600 23007KT P6SM BKN150 PROB30 1609/1612 -SHRA=



000
FTUS41 KOKX 150500
TAFISP
TAF
KISP 150537Z 1506/1606 VRB04KT P6SM FEW045
     FM151800 28007KT P6SM SKC
     FM152100 21007KT P6SM FEW250
     FM160200 VRB03KT P6SM FEW150 BKN250=



000
FTUS41 KOKX 150500
TAFGON
TAF
KGON 150537Z 1506/1606 VRB04KT P6SM FEW040
     FM151900 22007KT P6SM SKC
     FM160200 VRB03KT P6SM FEW150 BKN250=



000
FTUS41 KOKX 150200 AAA
TAFISP
TAF AMD
KISP 150230Z 1503/1524 VRB04KT P6SM SKC
     FM152100 21007KT P6SM SKC=



000
FTUS41 KOKX 150200 AAA
TAFTEB
TAF AMD
KTEB 150230Z 1503/1524 VRB04KT P6SM SKC=



000
FTUS41 KOKX 150200 AAA
TAFLGA
TAF AMD
KLGA 150230Z 1503/1524 VRB05KT P6SM SKC
     FM151300 36006KT P6SM SKC
     FM152000 06006KT P6SM SKC=



000
FTUS41 KOKX 150200 AAA
TAFBDR
TAF AMD
KBDR 150230Z 1503/1524 VRB04KT P6SM SKC
     FM151800 22007KT P6SM SKC=



000
FTUS41 KOKX 150200 AAA
TAFEWR
TAF AMD
KEWR 150230Z 1503/1606 VRB04KT P6SM SKC
     FM152000 14006KT P6SM SKC
     FM160000 VRB04KT P6SM SCT250=



000
FTUS41 KOKX 150200 AAA
TAFJFK
TAF AMD
KJFK 150230Z 1503/1606 VRB05KT P6SM SKC
     FM151400 29006KT P6SM SKC
     FM151700 23006KT P6SM SKC
     FM151900 20009KT P6SM SCT250=



000
FTUS41 KOKX 150200 AAA
TAFSWF
TAF AMD
KSWF 150230Z 1503/1606 VRB04KT P6SM SKC
      AMD NOT SKED=



000
FTUS41 KOKX 150200 AAA
TAFGON
TAF AMD
KGON 150230Z 1503/1524 VRB04KT P6SM SKC
     FM151900 23007KT P6SM SKC=



000
FTUS41 KOKX 142300
TAFGON
TAF
KGON 142323Z 1500/1524 VRB04KT P6SM SKC
     FM151900 23007KT P6SM SKC=



000
FTUS41 KOKX 142300
TAFJFK
TAF
KJFK 142323Z 1500/1606 VRB05KT P6SM FEW250
     FM151400 29006KT P6SM SKC
     FM151700 23006KT P6SM SKC
     FM151900 20009KT P6SM SCT250=



000
FTUS41 KOKX 142300
TAFTEB
TAF
KTEB 142323Z 1500/1524 VRB04KT P6SM FEW250=



000
FTUS41 KOKX 142300
TAFISP
TAF
KISP 142323Z 1500/1524 VRB04KT P6SM FEW250
     FM152100 21007KT P6SM SKC=



000
FTUS41 KOKX 142300
TAFSWF
TAF
KSWF 142323Z 1500/1606 VRB04KT P6SM FEW250
      AMD NOT SKED=



000
FTUS41 KOKX 142300
TAFLGA
TAF
KLGA 142323Z 1500/1524 VRB05KT P6SM FEW250
     FM151300 36006KT P6SM SKC
     FM152000 06006KT P6SM SKC=



000
FTUS41 KOKX 142300
TAFEWR
TAF
KEWR 142323Z 1500/1606 VRB04KT P6SM SKC
     FM152000 14006KT P6SM SKC
     FM160000 VRB04KT P6SM SCT250=



000
FTUS41 KOKX 142300
TAFBDR
TAF
KBDR 142323Z 1500/1524 VRB04KT P6SM FEW250
     FM151800 22007KT P6SM SKC=



    US Dept of Commerce
    National Oceanic and Atmospheric Administration
    National Weather Service
    1325 East West Highway
    Silver Spring, MD 20910
    Page Author: NWS Internet Services Team
Disclaimer
Information Quality
Credits
Glossary
Privacy Policy
Freedom of Information Act (FOIA)
About Us
Career Opportunities